createdAt,value
2019-01-19T00:00:33.335Z,12.10
2019-01-19T00:03:19.988Z,12.83
2019-01-19T00:06:08.071Z,11.77
2019-01-19T00:08:39.321Z,12.37
2019-01-19T00:11:39.631Z,12.97
2019-01-19T00:14:17.834Z,11.90
2019-01-19T00:17:13.755Z,12.13
2019-01-19T00:19:54.153Z,12.10
2019-01-19T00:22:34.950Z,13.30
2019-01-19T00:25:30.249Z,11.90
2019-01-19T00:28:10.552Z,11.30
2019-01-19T00:30:42.114Z,11.93
2019-01-19T00:33:37.555Z,12.30
2019-01-19T00:36:29.691Z,13.40
2019-01-19T00:39:20.416Z,12.03
2019-01-19T00:42:03.328Z,12.07
2019-01-19T00:44:41.243Z,12.20
2019-01-19T00:47:30.571Z,12.47
2019-01-19T00:50:18.696Z,12.30
2019-01-19T00:52:50.234Z,10.97
2019-01-19T00:55:24.725Z,12.07
2019-01-19T00:58:08.487Z,13.17
2019-01-19T01:00:40.015Z,13.10
2019-01-19T01:03:20.391Z,10.87
2019-01-19T01:05:51.907Z,14.13
2019-01-19T01:08:44.435Z,11.47
2019-01-19T01:11:15.959Z,12.00
2019-01-19T01:14:02.664Z,12.70
2019-01-19T01:16:40.012Z,11.57
2019-01-19T01:19:28.064Z,11.33
2019-01-19T01:22:02.688Z,11.60
2019-01-19T01:24:49.645Z,12.33
2019-01-19T01:27:46.704Z,11.97
2019-01-19T01:30:18.235Z,12.13
2019-01-19T01:32:55.435Z,10.80
2019-01-19T01:35:38.927Z,12.10
2019-01-19T01:38:27.962Z,10.53
2019-01-19T01:41:18.897Z,10.10
2019-01-19T01:43:59.450Z,10.93
2019-01-19T01:46:47.938Z,11.43
2019-01-19T01:49:22.195Z,10.93
2019-01-19T01:51:56.264Z,11.40
2019-01-19T01:54:27.785Z,10.67
2019-01-19T01:56:58.986Z,10.80
2019-01-19T01:59:30.536Z,11.30
2019-01-19T02:02:11.495Z,10.27
2019-01-19T02:05:10.231Z,11.80
2019-01-19T02:08:07.263Z,9.90
2019-01-19T02:10:44.387Z,10.67
2019-01-19T02:13:21.621Z,11.97
2019-01-19T02:16:13.721Z,11.00
2019-01-19T02:18:56.751Z,9.80
2019-01-19T02:21:34.259Z,10.13
2019-01-19T02:24:10.524Z,10.93
2019-01-19T02:26:47.860Z,10.23
2019-01-19T02:29:21.968Z,9.97
2019-01-19T02:31:56.332Z,10.67
2019-01-19T02:34:45.672Z,10.13
2019-01-19T02:37:23.196Z,10.27
2019-01-19T02:40:00.488Z,11.90
2019-01-19T02:42:43.984Z,9.63
2019-01-19T02:45:21.310Z,11.00
2019-01-19T02:48:27.621Z,10.20
2019-01-19T02:51:01.629Z,9.70
2019-01-19T02:53:56.767Z,9.97
2019-01-19T02:56:46.563Z,11.00
2019-01-19T02:59:20.862Z,10.30
2019-01-19T03:01:58.248Z,10.80
2019-01-19T03:04:47.575Z,10.23
2019-01-19T03:07:37.330Z,8.80
2019-01-19T03:10:30.669Z,10.20
2019-01-19T03:13:07.851Z,9.43
2019-01-19T03:15:58.975Z,8.90
2019-01-19T03:18:48.451Z,9.50
2019-01-19T03:21:36.764Z,9.97
2019-01-19T03:24:08.301Z,9.83
2019-01-19T03:26:48.599Z,9.03
2019-01-19T03:29:38.633Z,9.37
2019-01-19T03:32:19.164Z,9.13
2019-01-19T03:35:12.031Z,10.00
2019-01-19T03:37:58.666Z,9.20
2019-01-19T03:40:51.281Z,8.50
2019-01-19T03:43:59.156Z,8.80
2019-01-19T03:46:50.378Z,8.07
2019-01-19T03:49:24.471Z,8.30
2019-01-19T03:51:56.049Z,8.67
2019-01-19T03:54:30.209Z,7.97
2019-01-19T03:57:07.374Z,8.50
2019-01-19T03:59:57.002Z,8.93
2019-01-19T04:02:50.974Z,8.20
2019-01-19T04:05:38.991Z,8.53
2019-01-19T04:08:25.728Z,8.10
2019-01-19T04:10:59.762Z,7.53
2019-01-19T04:13:34.095Z,8.20
2019-01-19T04:16:20.736Z,7.67
2019-01-19T04:18:58.238Z,7.30
2019-01-19T04:21:32.456Z,8.23
2019-01-19T04:24:03.981Z,7.60
2019-01-19T04:26:51.955Z,7.90
2019-01-19T04:29:20.403Z,7.80
2019-01-19T04:31:48.858Z,7.00
2019-01-19T04:34:17.574Z,7.57
2019-01-19T04:36:46.302Z,8.03
2019-01-19T04:39:21.565Z,7.30
2019-01-19T04:41:50.041Z,7.30
2019-01-19T04:44:18.555Z,6.63
2019-01-19T04:46:46.991Z,7.43
2019-01-19T04:49:15.462Z,7.00
2019-01-19T04:51:43.960Z,6.80
2019-01-19T04:54:12.509Z,6.13
2019-01-19T04:56:41.019Z,6.67
2019-01-19T04:59:09.473Z,7.13
2019-01-19T05:01:37.931Z,7.07
2019-01-19T05:04:06.448Z,6.97
2019-01-19T05:06:34.891Z,6.67
2019-01-19T05:09:04.896Z,7.00
2019-01-19T05:11:34.708Z,7.03
2019-01-19T05:14:03.166Z,7.00
2019-01-19T05:16:31.696Z,6.60
2019-01-19T05:19:00.134Z,6.33
2019-01-19T05:21:28.860Z,6.60
2019-01-19T05:23:57.438Z,6.37
2019-01-19T05:26:25.896Z,6.80
2019-01-19T05:28:54.339Z,7.10
2019-01-19T05:31:22.794Z,6.40
2019-01-19T05:33:51.230Z,6.33
2019-01-19T05:36:19.695Z,6.13
2019-01-19T05:38:48.145Z,5.50
2019-01-19T05:41:16.610Z,5.60
2019-01-19T05:43:45.050Z,6.50
2019-01-19T05:46:21.216Z,5.60
2019-01-19T05:48:43.687Z,5.50
2019-01-19T05:51:12.149Z,5.53
2019-01-19T05:53:40.602Z,5.57
2019-01-19T05:56:09.172Z,6.10
2019-01-19T05:58:37.636Z,6.40
2019-01-19T06:01:06.099Z,5.63
2019-01-19T06:03:34.553Z,6.07
2019-01-19T06:06:03.873Z,5.90
2019-01-19T06:08:32.327Z,6.30
2019-01-19T06:11:00.781Z,6.07
2019-01-19T06:13:29.267Z,5.30
2019-01-19T06:15:57.710Z,6.30
2019-01-19T06:18:26.155Z,5.50
2019-01-19T06:20:54.603Z,6.87
2019-01-19T06:23:23.059Z,6.17
2019-01-19T06:25:51.499Z,5.50
2019-01-19T06:28:19.953Z,5.83
2019-01-19T06:30:48.408Z,6.60
2019-01-19T06:33:16.912Z,6.40
2019-01-19T06:35:45.416Z,6.00
2019-01-19T06:38:13.883Z,6.60
2019-01-19T06:40:42.331Z,6.70
2019-01-19T06:43:10.806Z,6.97
2019-01-19T06:45:46.262Z,6.30
2019-01-19T06:48:34.048Z,6.37
2019-01-19T06:51:02.504Z,5.63
2019-01-19T06:53:31.024Z,6.30
2019-01-19T06:55:59.486Z,5.73
2019-01-19T06:58:27.972Z,6.37
2019-01-19T07:00:56.429Z,5.70
2019-01-19T07:03:24.881Z,5.87
2019-01-19T07:05:53.336Z,5.00
2019-01-19T07:08:21.859Z,4.57
2019-01-19T07:10:50.308Z,5.40
2019-01-19T07:13:18.832Z,6.00
2019-01-19T07:16:06.629Z,5.70
2019-01-19T07:18:36.351Z,5.53
2019-01-19T07:21:04.914Z,5.13
2019-01-19T07:23:33.416Z,6.00
2019-01-19T07:26:21.252Z,5.10
2019-01-19T07:28:50.812Z,5.30
2019-01-19T07:31:19.351Z,5.30
2019-01-19T07:33:47.808Z,7.47
2019-01-19T07:36:35.650Z,5.60
2019-01-19T07:39:06.630Z,5.50
2019-01-19T07:41:35.148Z,5.30
2019-01-19T07:44:03.722Z,5.30
2019-01-19T07:46:32.664Z,4.63
2019-01-19T07:49:01.179Z,5.00
2019-01-19T07:51:29.711Z,4.97
2019-01-19T07:53:58.311Z,5.80
2019-01-19T07:56:26.767Z,4.97
2019-01-19T07:58:55.252Z,5.47
2019-01-19T08:01:23.705Z,4.97
2019-01-19T08:03:52.286Z,5.20
2019-01-19T08:06:20.776Z,5.07
2019-01-19T08:08:49.341Z,4.37
2019-01-19T08:11:17.915Z,5.07
2019-01-19T08:13:46.467Z,4.53
2019-01-19T08:16:14.980Z,4.03
2019-01-19T08:18:43.442Z,3.83
2019-01-19T08:21:11.889Z,4.70
2019-01-19T08:23:40.357Z,4.50
2019-01-19T08:26:09.881Z,4.70
2019-01-19T08:28:38.403Z,5.20
2019-01-19T08:31:06.851Z,4.67
2019-01-19T08:33:35.356Z,4.10
2019-01-19T08:36:04.316Z,4.30
2019-01-19T08:38:32.901Z,3.87
2019-01-19T08:41:01.438Z,4.20
2019-01-19T08:43:31.582Z,3.53
2019-01-19T08:46:00.038Z,3.83
2019-01-19T08:48:28.547Z,3.47
2019-01-19T08:50:57.008Z,4.50
2019-01-19T08:53:25.452Z,3.60
2019-01-19T08:55:54.052Z,4.43
2019-01-19T08:58:22.502Z,3.43
2019-01-19T09:00:51.030Z,4.03
2019-01-19T09:03:19.512Z,4.23
2019-01-19T09:05:47.963Z,3.57
2019-01-19T09:08:16.429Z,3.20
2019-01-19T09:10:44.906Z,4.50
2019-01-19T09:13:13.388Z,3.83
2019-01-19T09:15:41.892Z,3.90
2019-01-19T09:18:10.407Z,3.60
2019-01-19T09:20:40.452Z,4.10
2019-01-19T09:23:16.753Z,4.23
2019-01-19T09:25:45.193Z,3.77
2019-01-19T09:28:17.624Z,4.10
2019-01-19T09:30:46.149Z,3.80
2019-01-19T09:33:14.724Z,3.40
2019-01-19T09:35:43.291Z,3.87
2019-01-19T09:38:11.746Z,3.10
2019-01-19T09:40:40.252Z,4.00
2019-01-19T09:43:08.762Z,3.63
2019-01-19T09:45:37.189Z,3.33
2019-01-19T09:48:16.259Z,4.17
2019-01-19T09:51:04.208Z,3.30
2019-01-19T09:53:32.695Z,4.50
2019-01-19T09:56:01.240Z,4.70
2019-01-19T09:58:29.779Z,3.60
2019-01-19T10:00:58.294Z,3.90
2019-01-19T10:03:26.830Z,4.20
2019-01-19T10:06:00.354Z,3.97
2019-01-19T10:08:28.809Z,4.03
2019-01-19T10:10:57.533Z,3.47
2019-01-19T10:13:25.955Z,3.70
2019-01-19T10:15:54.469Z,3.70
2019-01-19T10:18:23.364Z,3.27
2019-01-19T10:20:51.817Z,3.97
2019-01-19T10:23:20.260Z,3.80
2019-01-19T10:26:08.118Z,3.27
2019-01-19T10:28:36.683Z,4.10
2019-01-19T10:31:05.143Z,4.37
2019-01-19T10:33:33.609Z,4.40
2019-01-19T10:36:02.125Z,3.70
2019-01-19T10:38:30.569Z,3.57
2019-01-19T10:40:59.008Z,4.60
2019-01-19T10:43:27.451Z,4.00
2019-01-19T10:45:55.900Z,3.87
2019-01-19T10:48:24.431Z,4.30
2019-01-19T10:50:52.935Z,5.17
2019-01-19T10:53:21.479Z,3.80
2019-01-19T10:55:49.979Z,4.07
2019-01-19T10:58:18.487Z,3.53
2019-01-19T11:00:46.926Z,4.17
2019-01-19T11:03:16.355Z,4.17
2019-01-19T11:05:44.879Z,3.70
2019-01-19T11:08:13.970Z,3.07
2019-01-19T11:10:42.576Z,3.93
2019-01-19T11:13:11.033Z,3.47
2019-01-19T11:15:39.534Z,4.03
2019-01-19T11:18:07.983Z,3.03
2019-01-19T11:20:36.492Z,3.40
2019-01-19T11:23:05.385Z,3.00
2019-01-19T11:25:34.032Z,3.83
2019-01-19T11:28:02.629Z,3.57
2019-01-19T11:30:32.992Z,3.93
2019-01-19T11:33:01.440Z,3.43
2019-01-19T11:35:30.808Z,2.90
2019-01-19T11:37:59.323Z,3.50
2019-01-19T11:40:34.202Z,3.60
2019-01-19T11:43:03.099Z,3.73
2019-01-19T11:45:31.669Z,3.77
2019-01-19T11:48:00.141Z,3.53
2019-01-19T11:50:28.711Z,3.10
2019-01-19T11:52:57.212Z,3.10
2019-01-19T11:55:25.684Z,2.83
2019-01-19T11:57:57.035Z,3.43
2019-01-19T12:00:31.016Z,2.77
2019-01-19T12:02:59.532Z,2.97
2019-01-19T12:05:28.083Z,3.03
2019-01-19T12:07:56.591Z,3.07
2019-01-19T12:10:27.222Z,3.20
2019-01-19T12:12:57.364Z,2.70
2019-01-19T12:15:26.116Z,3.30
2019-01-19T12:17:54.743Z,2.53
2019-01-19T12:20:43.114Z,3.70
2019-01-19T12:23:11.539Z,2.90
2019-01-19T12:25:40.081Z,2.97
2019-01-19T12:28:08.632Z,3.20
2019-01-19T12:30:38.335Z,3.17
2019-01-19T12:33:06.931Z,3.30
2019-01-19T12:35:35.531Z,3.37
2019-01-19T12:38:04.404Z,3.30
2019-01-19T12:40:33.036Z,2.27
2019-01-19T12:43:12.028Z,2.80
2019-01-19T12:45:49.346Z,3.20
2019-01-19T12:48:17.822Z,2.60
2019-01-19T12:50:46.379Z,2.80
2019-01-19T12:53:15.926Z,3.75
2019-01-19T12:55:44.671Z,3.10
2019-01-19T12:58:13.223Z,2.90
2019-01-19T13:00:41.672Z,2.10
2019-01-19T13:03:10.275Z,2.67
2019-01-19T13:05:47.924Z,3.00
2019-01-19T13:08:19.811Z,3.80
2019-01-19T13:11:03.423Z,3.00
2019-01-19T13:13:32.519Z,3.07
2019-01-19T13:16:23.682Z,3.17
2019-01-19T13:18:55.189Z,2.67
2019-01-19T13:21:47.587Z,2.40
2019-01-19T13:24:47.942Z,2.70
2019-01-19T13:27:34.330Z,3.47
2019-01-19T13:30:23.799Z,3.10
2019-01-19T13:33:13.719Z,2.63
2019-01-19T13:36:17.256Z,3.00
2019-01-19T13:38:54.328Z,3.97
2019-01-19T13:41:46.711Z,1.93
2019-01-19T13:44:30.273Z,2.90
2019-01-19T13:47:18.502Z,2.70
2019-01-19T13:50:02.096Z,2.20
2019-01-19T13:52:55.700Z,2.23
2019-01-19T13:55:28.399Z,2.53
2019-01-19T13:57:59.908Z,2.33
2019-01-19T14:00:46.605Z,2.20
2019-01-19T14:03:33.046Z,2.30
2019-01-19T14:06:09.897Z,2.27
2019-01-19T14:09:15.207Z,2.43
2019-01-19T14:11:55.779Z,2.47
2019-01-19T14:14:39.404Z,2.30
2019-01-19T14:17:28.896Z,2.00
2019-01-19T14:20:00.412Z,2.10
2019-01-19T14:22:31.940Z,1.90
2019-01-19T14:25:21.262Z,2.60
2019-01-19T14:28:17.987Z,2.00
2019-01-19T14:30:52.423Z,2.57
2019-01-19T14:33:48.443Z,1.70
2019-01-19T14:36:20.343Z,1.70
2019-01-19T14:39:00.412Z,2.13
2019-01-19T14:41:37.851Z,1.87
2019-01-19T14:44:39.694Z,2.10
2019-01-19T14:47:11.232Z,1.90
2019-01-19T14:49:51.596Z,2.63
2019-01-19T14:52:56.968Z,2.00
2019-01-19T14:55:37.196Z,2.07
2019-01-19T14:58:11.537Z,2.17
2019-01-19T15:00:52.170Z,2.10
2019-01-19T15:03:35.437Z,1.47
2019-01-19T15:06:06.941Z,2.40
2019-01-19T15:09:04.420Z,1.90
2019-01-19T15:12:00.418Z,1.50
2019-01-19T15:14:37.545Z,2.80
2019-01-19T15:17:17.900Z,2.20
2019-01-19T15:19:58.368Z,1.63
2019-01-19T15:22:44.375Z,2.33
2019-01-19T15:25:27.722Z,1.93
2019-01-19T15:28:01.931Z,2.10
2019-01-19T15:30:45.609Z,3.07
2019-01-19T15:33:53.183Z,2.60
2019-01-19T15:36:39.445Z,2.00
2019-01-19T15:39:16.668Z,2.00
2019-01-19T15:41:48.200Z,2.80
2019-01-19T15:44:35.253Z,2.57
2019-01-19T15:47:21.716Z,2.67
2019-01-19T15:49:55.939Z,2.70
2019-01-19T15:52:33.236Z,2.70
2019-01-19T15:55:04.763Z,4.10
2019-01-19T15:57:45.138Z,3.37
2019-01-19T16:00:31.559Z,3.10
2019-01-19T16:03:11.791Z,3.00
2019-01-19T16:06:08.331Z,3.70
2019-01-19T16:08:46.037Z,4.40
2019-01-19T16:11:41.567Z,3.20
2019-01-19T16:14:16.115Z,2.90
2019-01-19T16:16:55.205Z,3.00
2019-01-19T16:19:41.719Z,3.30
2019-01-19T16:22:31.069Z,4.13
2019-01-19T16:25:24.004Z,3.30
2019-01-19T16:28:15.096Z,3.40
2019-01-19T16:31:09.193Z,2.97
2019-01-19T16:33:48.929Z,4.83
2019-01-19T16:36:49.552Z,3.30
2019-01-19T16:39:25.606Z,3.90
2019-01-19T16:42:06.052Z,4.87
2019-01-19T16:44:49.428Z,4.50
2019-01-19T16:47:33.115Z,3.80
2019-01-19T16:50:16.494Z,3.97
2019-01-19T16:52:48.074Z,4.33
2019-01-19T16:55:37.859Z,3.83
2019-01-19T16:58:12.477Z,4.47
2019-01-19T17:01:08.360Z,3.97
2019-01-19T17:03:43.066Z,5.83
2019-01-19T17:06:20.852Z,3.80
2019-01-19T17:09:12.211Z,3.90
2019-01-19T17:11:43.735Z,3.73
2019-01-19T17:14:21.002Z,3.80
2019-01-19T17:16:58.611Z,4.50
2019-01-19T17:19:42.158Z,4.30
2019-01-19T17:22:28.547Z,5.90
2019-01-19T17:25:03.083Z,4.60
2019-01-19T17:27:34.618Z,4.70
2019-01-19T17:30:22.936Z,4.50
2019-01-19T17:33:06.195Z,4.60
2019-01-19T17:36:01.759Z,4.20
2019-01-19T17:38:50.129Z,4.23
2019-01-19T17:41:53.144Z,4.77
2019-01-19T17:44:27.483Z,4.13
2019-01-19T17:46:59.009Z,4.63
2019-01-19T17:49:39.316Z,5.73
2019-01-19T17:52:19.595Z,4.40
2019-01-19T17:55:06.048Z,4.40
2019-01-19T17:57:43.650Z,4.50
2019-01-19T18:00:40.970Z,3.87
2019-01-19T18:03:21.574Z,4.30
2019-01-19T18:05:58.677Z,5.00
2019-01-19T18:08:33.383Z,5.55
2019-01-19T18:11:24.524Z,4.57
2019-01-19T18:14:05.084Z,4.87
2019-01-19T18:17:03.364Z,4.80
2019-01-19T18:19:34.891Z,4.83
2019-01-19T18:22:30.716Z,4.20
2019-01-19T18:25:04.798Z,5.53
2019-01-19T18:27:41.966Z,5.50
2019-01-19T18:30:19.357Z,4.70
2019-01-19T18:33:02.703Z,7.27
2019-01-19T18:36:04.729Z,4.33
2019-01-19T18:38:38.824Z,5.20
2019-01-19T18:41:19.099Z,4.07
2019-01-19T18:44:07.084Z,4.80
2019-01-19T18:47:13.652Z,4.03
2019-01-19T18:50:05.697Z,4.90
2019-01-19T18:53:05.706Z,4.70
2019-01-19T18:55:52.122Z,4.70
2019-01-19T18:58:38.799Z,5.00
2019-01-19T19:01:10.311Z,5.10
2019-01-19T19:04:02.864Z,6.23
2019-01-19T19:06:54.200Z,4.87
2019-01-19T19:09:49.463Z,5.10
2019-01-19T19:12:56.214Z,4.33
2019-01-19T19:16:00.935Z,5.47
2019-01-19T19:18:55.279Z,5.70
2019-01-19T19:21:38.543Z,4.60
2019-01-19T19:24:12.831Z,5.53
2019-01-19T19:26:58.951Z,5.17
2019-01-19T19:29:54.598Z,6.07
2019-01-19T19:32:43.914Z,5.13
2019-01-19T19:35:24.988Z,5.93
2019-01-19T19:38:15.884Z,5.80
2019-01-19T19:41:05.226Z,5.13
2019-01-19T19:43:56.302Z,5.93
2019-01-19T19:46:36.966Z,4.73
2019-01-19T19:49:27.851Z,5.00
2019-01-19T19:51:55.402Z,4.40
2019-01-19T19:54:51.512Z,4.70
2019-01-19T19:57:20.098Z,5.43
2019-01-19T19:59:48.544Z,4.90
2019-01-19T20:02:17.061Z,4.67
2019-01-19T20:04:45.582Z,4.80
2019-01-19T20:07:14.105Z,5.67
2019-01-19T20:09:42.700Z,5.07
2019-01-19T20:12:11.295Z,4.90
2019-01-19T20:14:39.810Z,4.73
2019-01-19T20:17:08.673Z,5.40
2019-01-19T20:19:37.250Z,5.60
2019-01-19T20:22:05.739Z,5.43
2019-01-19T20:24:34.278Z,4.90
2019-01-19T20:27:02.801Z,5.10
2019-01-19T20:29:31.233Z,6.00
2019-01-19T20:31:59.698Z,5.23
2019-01-19T20:34:28.153Z,4.93
2019-01-19T20:37:15.916Z,5.50
2019-01-19T20:39:56.665Z,5.03
2019-01-19T20:42:25.111Z,5.20
2019-01-19T20:44:53.565Z,5.60
2019-01-19T20:47:27.736Z,5.10
2019-01-19T20:49:56.178Z,5.70
2019-01-19T20:52:24.618Z,5.50
2019-01-19T20:54:54.111Z,5.03
2019-01-19T20:57:22.626Z,5.23
2019-01-19T20:59:51.493Z,5.90
2019-01-19T21:02:21.072Z,4.70
2019-01-19T21:04:49.556Z,4.40
2019-01-19T21:07:17.988Z,5.13
2019-01-19T21:09:46.584Z,4.77
2019-01-19T21:12:15.020Z,5.33
2019-01-19T21:14:43.501Z,5.80
2019-01-19T21:17:12.051Z,5.00
2019-01-19T21:19:40.611Z,5.30
2019-01-19T21:22:09.259Z,4.23
2019-01-19T21:24:38.875Z,5.10
2019-01-19T21:27:07.370Z,5.50
2019-01-19T21:29:35.831Z,4.97
2019-01-19T21:32:04.376Z,5.20
2019-01-19T21:34:32.831Z,5.10
2019-01-19T21:37:01.268Z,5.60
2019-01-19T21:39:29.718Z,5.77
2019-01-19T21:41:58.260Z,5.10
2019-01-19T21:44:27.206Z,5.73
2019-01-19T21:46:55.677Z,5.23
2019-01-19T21:49:24.296Z,6.07
2019-01-19T21:51:52.827Z,6.80
2019-01-19T21:54:21.394Z,6.58
2019-01-19T21:56:50.032Z,5.97
2019-01-19T21:59:18.487Z,4.70
2019-01-19T22:01:47.000Z,6.08
2019-01-19T22:04:15.443Z,5.50
2019-01-19T22:06:43.880Z,5.37
2019-01-19T22:09:12.386Z,5.43
2019-01-19T22:11:41.167Z,4.80
2019-01-19T22:14:09.698Z,5.40
2019-01-19T22:16:41.351Z,4.80
2019-01-19T22:19:22.035Z,4.37
2019-01-19T22:21:50.615Z,4.80
2019-01-19T22:24:19.191Z,5.03
2019-01-19T22:26:49.297Z,5.20
2019-01-19T22:29:17.967Z,4.00
2019-01-19T22:31:46.476Z,5.00
2019-01-19T22:34:14.940Z,5.43
2019-01-19T22:36:43.486Z,4.33
2019-01-19T22:39:31.267Z,4.90
2019-01-19T22:41:59.799Z,4.70
2019-01-19T22:44:28.259Z,4.70
2019-01-19T22:46:56.711Z,4.37
2019-01-19T22:49:25.144Z,4.70
2019-01-19T22:51:53.600Z,4.80
2019-01-19T22:54:22.109Z,4.60
2019-01-19T22:56:50.614Z,4.80
2019-01-19T22:59:19.089Z,3.90
2019-01-19T23:01:47.787Z,4.50
2019-01-19T23:04:16.220Z,4.50
2019-01-19T23:06:44.731Z,4.50
2019-01-19T23:09:13.234Z,5.00
2019-01-19T23:11:41.924Z,5.00
2019-01-19T23:14:11.001Z,4.97
2019-01-19T23:16:40.632Z,4.63
2019-01-19T23:19:09.135Z,4.60
2019-01-19T23:21:37.680Z,4.53
2019-01-19T23:24:06.251Z,5.37
2019-01-19T23:26:35.035Z,3.90
2019-01-19T23:29:03.628Z,4.90
2019-01-19T23:31:32.138Z,4.83
2019-01-19T23:34:00.598Z,4.13
2019-01-19T23:36:29.044Z,3.53
2019-01-19T23:38:58.572Z,4.17
2019-01-19T23:41:27.032Z,4.07
2019-01-19T23:43:56.084Z,4.75
2019-01-19T23:46:24.586Z,4.40
2019-01-19T23:48:53.026Z,4.70
2019-01-19T23:51:22.369Z,4.40
2019-01-19T23:53:51.015Z,4.43
2019-01-19T23:56:19.464Z,4.57
2019-01-19T23:58:47.915Z,4.37
